createdAt,value
2022-11-13T00:01:09.286Z,102283.75
2022-11-13T00:03:37.291Z,102281.78
2022-11-13T00:06:05.564Z,102281.69
2022-11-13T00:08:33.477Z,102275.88
2022-11-13T00:11:02.856Z,102281.44
2022-11-13T00:13:30.902Z,102280.56
2022-11-13T00:16:02.277Z,102274.63
2022-11-13T00:18:31.028Z,102277.75
2022-11-13T00:20:59.747Z,102269.66
2022-11-13T00:23:27.568Z,102265.66
2022-11-13T00:25:55.384Z,102269.06
2022-11-13T00:28:23.201Z,102255.31
2022-11-13T00:30:50.857Z,102257.59
2022-11-13T00:33:38.015Z,102253.50
2022-11-13T00:36:10.226Z,102246.81
2022-11-13T00:38:38.206Z,102244.09
2022-11-13T00:41:06.262Z,102247.13
2022-11-13T00:43:34.015Z,102246.41
2022-11-13T00:46:01.764Z,102245.00
2022-11-13T00:48:31.129Z,102250.13
2022-11-13T00:50:59.092Z,102240.63
2022-11-13T00:53:27.240Z,102242.13
2022-11-13T00:55:54.955Z,102245.00
2022-11-13T00:58:22.663Z,102245.44
2022-11-13T01:00:50.427Z,102247.56
2022-11-13T01:03:18.580Z,102248.97
2022-11-13T01:05:48.127Z,102245.06
2022-11-13T01:08:17.117Z,102248.59
2022-11-13T01:10:53.045Z,102243.78
2022-11-13T01:13:21.532Z,102244.31
2022-11-13T01:15:49.361Z,102242.47
2022-11-13T01:18:17.067Z,102251.69
2022-11-13T01:20:44.758Z,102243.31
2022-11-13T01:23:13.804Z,102243.91
2022-11-13T01:25:41.509Z,102242.38
2022-11-13T01:28:09.864Z,102241.63
2022-11-13T01:30:39.839Z,102238.34
2022-11-13T01:33:07.510Z,102233.94
2022-11-13T01:35:35.425Z,102226.16
2022-11-13T01:38:03.085Z,102229.56
2022-11-13T01:40:32.044Z,102232.41
2022-11-13T01:42:59.695Z,102237.81
2022-11-13T01:46:08.693Z,102232.72
2022-11-13T01:48:39.677Z,102232.56
2022-11-13T01:51:12.386Z,102221.19
2022-11-13T01:53:42.663Z,102224.59
2022-11-13T01:56:12.775Z,102216.09
2022-11-13T01:58:41.538Z,102216.81
2022-11-13T02:01:09.443Z,102217.81
2022-11-13T02:03:37.267Z,102213.41
2022-11-13T02:06:05.242Z,102214.69
2022-11-13T02:08:33.045Z,102210.13
2022-11-13T02:11:00.899Z,102185.44
2022-11-13T02:13:29.921Z,102199.91
2022-11-13T02:15:59.239Z,102192.53
2022-11-13T02:18:30.711Z,102193.38
2022-11-13T02:21:06.619Z,102184.19
2022-11-13T02:23:44.750Z,102185.03
2022-11-13T02:26:14.241Z,102193.25
2022-11-13T02:28:41.935Z,102192.28
2022-11-13T02:31:10.463Z,102193.09
2022-11-13T02:33:38.169Z,102199.09
2022-11-13T02:36:07.931Z,102192.00
2022-11-13T02:38:37.078Z,102192.69
2022-11-13T02:41:04.766Z,102196.53
2022-11-13T02:43:33.785Z,102192.84
2022-11-13T02:46:01.402Z,102191.84
2022-11-13T02:48:29.565Z,102191.88
2022-11-13T02:50:57.505Z,102192.84
2022-11-13T02:53:25.156Z,102191.84
2022-11-13T02:55:52.818Z,102191.16
2022-11-13T02:58:20.546Z,102188.31
2022-11-13T03:00:49.538Z,102191.31
2022-11-13T03:03:34.212Z,102192.56
2022-11-13T03:06:04.964Z,102180.09
2022-11-13T03:08:33.646Z,102182.06
2022-11-13T03:11:08.641Z,102176.53
2022-11-13T03:13:36.616Z,102183.78
2022-11-13T03:16:14.064Z,102183.03
2022-11-13T03:18:42.339Z,102175.84
2022-11-13T03:21:11.676Z,102177.06
2022-11-13T03:23:39.674Z,102172.72
2022-11-13T03:26:08.788Z,102168.44
2022-11-13T03:28:37.213Z,102174.66
2022-11-13T03:31:06.064Z,102175.41
2022-11-13T03:33:35.254Z,102166.47
2022-11-13T03:36:02.989Z,102167.31
2022-11-13T03:38:31.204Z,102168.88
2022-11-13T03:40:59.345Z,102172.25
2022-11-13T03:43:27.046Z,102164.75
2022-11-13T03:45:54.739Z,102163.19
2022-11-13T03:48:22.473Z,102160.50
2022-11-13T03:50:54.854Z,102160.50
2022-11-13T03:53:22.779Z,102163.19
2022-11-13T03:55:50.591Z,102170.28
2022-11-13T03:58:18.477Z,102161.91
2022-11-13T04:00:47.315Z,102165.75
2022-11-13T04:03:15.189Z,102163.19
2022-11-13T04:05:43.495Z,102156.97
2022-11-13T04:08:12.477Z,102167.03
2022-11-13T04:10:40.187Z,102167.03
2022-11-13T04:13:08.282Z,102160.63
2022-11-13T04:15:35.959Z,102156.53
2022-11-13T04:18:03.836Z,102154.84
2022-11-13T04:20:31.635Z,102142.63
2022-11-13T04:22:59.683Z,102139.38
2022-11-13T04:25:28.704Z,102132.13
2022-11-13T04:27:56.370Z,102131.97
2022-11-13T04:30:24.028Z,102132.28
2022-11-13T04:32:51.720Z,102135.41
2022-11-13T04:35:19.668Z,102132.28
2022-11-13T04:37:47.377Z,102130.44
2022-11-13T04:40:16.531Z,102124.03
2022-11-13T04:42:50.765Z,102125.31
2022-11-13T04:45:19.653Z,102125.75
2022-11-13T04:47:47.626Z,102117.69
2022-11-13T04:50:16.683Z,102125.91
2022-11-13T04:52:44.922Z,102114.81
2022-11-13T04:55:13.526Z,102111.13
2022-11-13T04:57:41.986Z,102101.78
2022-11-13T05:00:12.514Z,102102.22
2022-11-13T05:02:40.194Z,102101.09
2022-11-13T05:05:08.579Z,102101.22
2022-11-13T05:07:36.258Z,102102.34
2022-11-13T05:10:04.313Z,102094.69
2022-11-13T05:12:32.061Z,102097.66
2022-11-13T05:14:59.666Z,102094.00
2022-11-13T05:17:28.676Z,102094.41
2022-11-13T05:19:56.341Z,102097.38
2022-11-13T05:22:24.396Z,102098.09
2022-11-13T05:24:52.168Z,102096.25
2022-11-13T05:27:19.861Z,102098.09
2022-11-13T05:29:47.522Z,102096.69
2022-11-13T05:32:15.258Z,102095.56
2022-11-13T05:34:44.252Z,102094.69
2022-11-13T05:37:11.917Z,102100.22
2022-11-13T05:39:39.676Z,102089.84
2022-11-13T05:42:07.346Z,102081.91
2022-11-13T05:44:34.972Z,102078.22
2022-11-13T05:47:02.612Z,102085.03
2022-11-13T05:49:30.287Z,102081.22
2022-11-13T05:51:59.287Z,102083.91
2022-11-13T05:54:26.934Z,102093.25
2022-11-13T05:56:54.561Z,102082.81
2022-11-13T05:59:22.231Z,102089.47
2022-11-13T06:01:49.969Z,102089.91
2022-11-13T06:04:17.743Z,102086.06
2022-11-13T06:06:45.379Z,102084.38
2022-11-13T06:09:17.147Z,102076.84
2022-11-13T06:11:45.046Z,102068.03
2022-11-13T06:14:12.732Z,102068.19
2022-11-13T06:16:41.277Z,102073.84
2022-11-13T06:19:11.040Z,102067.03
2022-11-13T06:21:41.132Z,102065.47
2022-11-13T06:24:11.661Z,102071.13
2022-11-13T06:26:40.991Z,102062.50
2022-11-13T06:29:11.146Z,102068.75
2022-11-13T06:31:38.948Z,102069.75
2022-11-13T06:34:07.152Z,102072.88
2022-11-13T06:36:37.648Z,102073.16
2022-11-13T06:39:08.112Z,102067.91
2022-11-13T06:41:35.925Z,102066.66
2022-11-13T06:44:05.303Z,102065.53
2022-11-13T06:46:33.031Z,102060.69
2022-11-13T06:49:00.973Z,102064.94
2022-11-13T06:51:30.522Z,102082.22
2022-11-13T06:53:59.044Z,102079.38
2022-11-13T06:56:27.417Z,102088.03
2022-11-13T06:58:56.174Z,102093.69
2022-11-13T07:01:26.519Z,102090.97
2022-11-13T07:03:54.660Z,102091.94
2022-11-13T07:06:23.956Z,102092.13
2022-11-13T07:08:52.752Z,102095.94
2022-11-13T07:11:22.353Z,102090.06
2022-11-13T07:13:50.922Z,102096.88
2022-11-13T07:16:18.916Z,102082.59
2022-11-13T07:18:52.049Z,102089.78
2022-11-13T07:21:20.606Z,102085.13
2022-11-13T07:23:49.358Z,102082.75
2022-11-13T07:26:17.767Z,102085.88
2022-11-13T07:28:45.756Z,102082.63
2022-11-13T07:31:15.058Z,102093.94
2022-11-13T07:33:42.723Z,102093.25
2022-11-13T07:36:12.249Z,102095.25
2022-11-13T07:38:39.872Z,102094.53
2022-11-13T07:41:07.709Z,102092.72
2022-11-13T07:43:36.363Z,102086.75
2022-11-13T07:46:04.302Z,102086.47
2022-11-13T07:48:32.453Z,102082.94
2022-11-13T07:51:02.107Z,102077.66
2022-11-13T07:53:31.682Z,102078.78
2022-11-13T07:56:02.168Z,102071.69
2022-11-13T07:58:30.487Z,102082.19
2022-11-13T08:01:03.083Z,102071.72
2022-11-13T08:03:31.120Z,102075.97
2022-11-13T08:06:02.438Z,102075.41
2022-11-13T08:08:32.144Z,102071.72
2022-11-13T08:11:00.620Z,102070.63
2022-11-13T08:13:28.680Z,102063.25
2022-11-13T08:15:59.847Z,102062.38
2022-11-13T08:18:28.658Z,102065.19
2022-11-13T08:20:56.983Z,102062.22
2022-11-13T08:23:24.691Z,102067.75
2022-11-13T08:25:54.088Z,102069.47
2022-11-13T08:28:21.737Z,102073.41
2022-11-13T08:30:49.447Z,102068.28
2022-11-13T08:33:17.169Z,102072.97
2022-11-13T08:35:53.486Z,102068.03
2022-11-13T08:38:22.312Z,102073.00
2022-11-13T08:40:50.148Z,102065.22
2022-11-13T08:43:21.341Z,102069.44
2022-11-13T08:45:49.330Z,102067.16
2022-11-13T08:48:17.016Z,102066.88
2022-11-13T08:50:44.696Z,102070.13
2022-11-13T08:53:12.573Z,102066.72
2022-11-13T08:55:40.300Z,102055.47
2022-11-13T08:58:07.966Z,102066.28
2022-11-13T09:00:37.045Z,102067.13
2022-11-13T09:03:05.081Z,102066.47
2022-11-13T09:05:32.828Z,102075.41
2022-11-13T09:08:02.453Z,102077.50
2022-11-13T09:10:31.335Z,102061.72
2022-11-13T09:13:01.793Z,102066.34
2022-11-13T09:15:29.979Z,102061.88
2022-11-13T09:17:59.744Z,102056.97
2022-11-13T09:20:28.123Z,102056.06
2022-11-13T09:22:59.738Z,102056.47
2022-11-13T09:25:36.882Z,102042.00
2022-11-13T09:28:07.185Z,102054.25
2022-11-13T09:30:35.393Z,102047.66
2022-11-13T09:33:05.267Z,102048.88
2022-11-13T09:35:36.945Z,102045.50
2022-11-13T09:38:11.136Z,102049.09
2022-11-13T09:40:44.974Z,102041.50
2022-11-13T09:43:25.784Z,102038.75
2022-11-13T09:45:59.169Z,102041.03
2022-11-13T09:48:34.976Z,102049.88
2022-11-13T09:51:08.395Z,102043.34
2022-11-13T09:53:38.617Z,102042.44
2022-11-13T09:56:16.102Z,102043.53
2022-11-13T09:58:49.792Z,102045.75
2022-11-13T10:01:25.406Z,102044.53
2022-11-13T10:04:04.179Z,102044.84
2022-11-13T10:07:01.486Z,102041.81
2022-11-13T10:09:38.040Z,102039.28
2022-11-13T10:12:09.965Z,102040.72
2022-11-13T10:14:42.787Z,102028.28
2022-11-13T10:17:17.648Z,102025.09
2022-11-13T10:19:55.309Z,102021.69
2022-11-13T10:22:33.939Z,102014.31
2022-11-13T10:25:11.866Z,102011.41
2022-11-13T10:27:39.877Z,102010.22
2022-11-13T10:30:14.968Z,102007.53
2022-11-13T10:32:43.235Z,102012.03
2022-11-13T10:35:28.852Z,102018.28
2022-11-13T10:38:06.582Z,102014.72
2022-11-13T10:40:37.219Z,102022.66
2022-11-13T10:43:15.407Z,102021.19
2022-11-13T10:45:54.246Z,102022.34
2022-11-13T10:48:23.960Z,102011.16
2022-11-13T10:50:58.475Z,102012.16
2022-11-13T10:53:28.378Z,102014.84
2022-11-13T10:55:58.646Z,102008.72
2022-11-13T10:58:27.014Z,102007.91
2022-11-13T11:00:55.037Z,101994.78
2022-11-13T11:03:25.059Z,101995.63
2022-11-13T11:05:54.865Z,101998.97
2022-11-13T11:08:34.891Z,101995.50
2022-11-13T11:11:21.905Z,102007.41
2022-11-13T11:13:49.857Z,102006.22
2022-11-13T11:16:22.256Z,101989.34
2022-11-13T11:18:54.903Z,101988.88
2022-11-13T11:21:28.323Z,101987.59
2022-11-13T11:24:02.116Z,101985.81
2022-11-13T11:26:35.018Z,101983.25
2022-11-13T11:29:15.419Z,101980.13
2022-11-13T11:31:49.409Z,101983.25
2022-11-13T11:34:21.430Z,101970.47
2022-11-13T11:36:58.893Z,101967.38
2022-11-13T11:39:32.550Z,101975.22
2022-11-13T11:42:10.914Z,101968.25
2022-11-13T11:44:55.954Z,101968.91
2022-11-13T11:47:23.949Z,101962.59
2022-11-13T11:49:51.913Z,101955.34
2022-11-13T11:52:34.637Z,101945.78
2022-11-13T11:55:20.980Z,101948.66
2022-11-13T11:57:55.726Z,101946.28
2022-11-13T12:00:23.562Z,101938.75
2022-11-13T12:03:16.831Z,101943.50
2022-11-13T12:05:58.405Z,101932.34
2022-11-13T12:08:34.231Z,101939.00
2022-11-13T12:11:13.265Z,101934.56
2022-11-13T12:13:53.249Z,101926.91
2022-11-13T12:16:28.890Z,101918.72
2022-11-13T12:19:03.936Z,101915.69
2022-11-13T12:21:44.660Z,101916.44
2022-11-13T12:24:24.783Z,101912.66
2022-11-13T12:27:07.432Z,101899.97
2022-11-13T12:29:50.247Z,101904.91
2022-11-13T12:32:32.036Z,101906.88
2022-11-13T12:35:04.529Z,101906.56
2022-11-13T12:37:37.366Z,101903.09
2022-11-13T12:40:09.032Z,101909.91
2022-11-13T12:42:47.678Z,101918.91
2022-11-13T12:45:25.342Z,101913.53
2022-11-13T12:47:53.912Z,101905.56
2022-11-13T12:50:31.437Z,101907.44
2022-11-13T12:53:02.289Z,101903.91
2022-11-13T12:55:31.916Z,101900.59
2022-11-13T12:58:10.196Z,101898.22
2022-11-13T13:00:40.589Z,101908.31
2022-11-13T13:03:26.988Z,101908.06
2022-11-13T13:06:11.920Z,101910.81
2022-11-13T13:08:50.153Z,101899.16
2022-11-13T13:11:24.845Z,101896.25
2022-11-13T13:14:15.640Z,101895.69
2022-11-13T13:16:46.154Z,101888.81
2022-11-13T13:19:28.267Z,101882.97
2022-11-13T13:21:56.452Z,101880.91
2022-11-13T13:24:33.799Z,101873.28
2022-11-13T13:27:02.229Z,101877.97
2022-11-13T13:29:34.168Z,101873.59
2022-11-13T13:32:13.733Z,101878.44
2022-11-13T13:34:56.366Z,101864.72
2022-11-13T13:37:33.924Z,101864.56
2022-11-13T13:40:15.945Z,101860.13
2022-11-13T13:42:59.583Z,101857.03
2022-11-13T13:45:39.963Z,101847.94
2022-11-13T13:48:11.527Z,101849.88
2022-11-13T13:50:42.718Z,101845.00
2022-11-13T13:53:16.721Z,101841.00
2022-11-13T13:55:49.028Z,101842.69
2022-11-13T13:58:20.666Z,101846.78
2022-11-13T14:01:17.104Z,101846.16
2022-11-13T14:03:46.100Z,101846.84
2022-11-13T14:06:22.812Z,101843.91
2022-11-13T14:08:50.866Z,101840.72
2022-11-13T14:11:21.219Z,101840.22
2022-11-13T14:13:49.368Z,101844.28
2022-11-13T14:16:18.422Z,101830.72
2022-11-13T14:18:46.109Z,101830.34
2022-11-13T14:21:18.437Z,101822.72
2022-11-13T14:23:48.965Z,101835.97
2022-11-13T14:26:17.410Z,101835.84
2022-11-13T14:28:53.395Z,101839.81
2022-11-13T14:31:29.791Z,101840.59
2022-11-13T14:34:01.181Z,101838.88
2022-11-13T14:36:31.494Z,101843.94
2022-11-13T14:39:00.381Z,101833.97
2022-11-13T14:41:35.104Z,101837.13
2022-11-13T14:44:03.460Z,101830.59
2022-11-13T14:46:36.173Z,101835.09
2022-11-13T14:49:04.834Z,101831.09
2022-11-13T14:51:34.368Z,101826.59
2022-11-13T14:54:07.889Z,101819.44
2022-11-13T14:56:38.508Z,101818.06
2022-11-13T14:59:15.541Z,101820.41
2022-11-13T15:01:57.221Z,101814.44
2022-11-13T15:04:25.642Z,101814.09
2022-11-13T15:06:56.206Z,101814.00
2022-11-13T15:09:25.448Z,101819.56
2022-11-13T15:11:53.752Z,101828.38
2022-11-13T15:14:23.073Z,101822.03
2022-11-13T15:16:53.808Z,101816.97
2022-11-13T15:19:30.743Z,101811.91
2022-11-13T15:22:25.740Z,101805.44
2022-11-13T15:24:46.341Z,101811.66
2022-11-13T15:27:16.091Z,101799.72
2022-11-13T15:29:44.595Z,101808.53
2022-11-13T15:32:13.502Z,101814.00
2022-11-13T15:34:42.827Z,101802.75
2022-11-13T15:37:13.362Z,101795.34
2022-11-13T15:39:41.463Z,101801.31
2022-11-13T15:42:16.276Z,101803.44
2022-11-13T15:44:44.305Z,101807.09
2022-11-13T15:47:26.280Z,101808.31
2022-11-13T15:50:15.293Z,101807.22
2022-11-13T15:52:45.926Z,101793.88
2022-11-13T15:55:32.936Z,101800.72
2022-11-13T15:58:00.852Z,101791.34
2022-11-13T16:00:29.675Z,101794.28
2022-11-13T16:02:58.635Z,101793.16
2022-11-13T16:05:29.210Z,101788.25
2022-11-13T16:07:57.561Z,101780.50
2022-11-13T16:10:26.042Z,101784.66
2022-11-13T16:12:54.077Z,101769.06
2022-11-13T16:15:22.129Z,101773.69
2022-11-13T16:17:53.447Z,101777.69
2022-11-13T16:20:21.236Z,101781.78
2022-11-13T16:22:50.774Z,101764.53
2022-11-13T16:25:22.873Z,101776.03
2022-11-13T16:27:51.789Z,101773.72
2022-11-13T16:30:22.951Z,101765.91
2022-11-13T16:32:51.016Z,101762.63
2022-11-13T16:35:21.545Z,101768.38
2022-11-13T16:37:50.530Z,101767.78
2022-11-13T16:40:22.586Z,101766.63
2022-11-13T16:42:51.741Z,101770.00
2022-11-13T16:45:20.367Z,101767.31
2022-11-13T16:47:48.543Z,101764.06
2022-11-13T16:50:18.394Z,101763.81
2022-11-13T16:52:46.169Z,101765.13
2022-11-13T16:55:15.334Z,101763.09
2022-11-13T16:57:43.175Z,101755.41
2022-11-13T17:00:14.833Z,101751.91
2022-11-13T17:02:44.506Z,101749.88
2022-11-13T17:05:13.941Z,101747.16
2022-11-13T17:07:42.821Z,101728.34
2022-11-13T17:13:01.905Z,101727.50
2022-11-13T17:15:29.724Z,101716.47
2022-11-13T17:17:59.040Z,101707.75
2022-11-13T17:20:27.684Z,101711.91
2022-11-13T17:22:55.950Z,101706.75
2022-11-13T17:25:26.396Z,101706.31
2022-11-13T17:27:54.358Z,101701.75
2022-11-13T17:30:26.102Z,101709.78
2022-11-13T17:32:54.103Z,101710.41
2022-11-13T17:35:22.077Z,101706.53
2022-11-13T17:37:49.942Z,101708.63
2022-11-13T17:40:17.943Z,101707.16
2022-11-13T17:42:47.835Z,101715.00
2022-11-13T17:45:15.889Z,101706.91
2022-11-13T17:47:45.090Z,101704.78
2022-11-13T17:50:14.901Z,101708.84
2022-11-13T17:52:42.766Z,101706.63
2022-11-13T17:55:12.944Z,101710.78
2022-11-13T17:57:40.841Z,101699.16
2022-11-13T18:00:10.049Z,101698.47
2022-11-13T18:02:37.790Z,101701.78
2022-11-13T18:05:09.195Z,101700.13
2022-11-13T18:07:37.194Z,101699.06
2022-11-13T18:10:05.649Z,101692.53
2022-11-13T18:12:33.382Z,101692.38
2022-11-13T18:15:01.112Z,101691.75
2022-11-13T18:17:29.014Z,101687.41
2022-11-13T18:20:01.529Z,101687.53
2022-11-13T18:22:31.511Z,101693.47
2022-11-13T18:24:59.229Z,101694.28
2022-11-13T18:27:27.698Z,101687.34
2022-11-13T18:29:55.805Z,101683.91
2022-11-13T18:32:23.987Z,101690.84
2022-11-13T18:34:51.901Z,101684.03
2022-11-13T18:37:19.785Z,101701.00
2022-11-13T18:39:48.855Z,101696.47
2022-11-13T18:42:16.687Z,101689.22
2022-11-13T18:44:45.381Z,101682.75
2022-11-13T18:47:13.170Z,101684.91
2022-11-13T18:49:40.955Z,101686.66
2022-11-13T18:52:08.851Z,101682.66
2022-11-13T18:54:36.808Z,101677.88
2022-11-13T18:57:06.447Z,101669.81
2022-11-13T18:59:34.656Z,101674.59
2022-11-13T19:02:03.162Z,101670.03
2022-11-13T19:04:31.342Z,101664.41
2022-11-13T19:07:02.346Z,101664.72
2022-11-13T19:09:30.545Z,101659.84
2022-11-13T19:11:58.424Z,101660.28
2022-11-13T19:14:27.608Z,101647.56
2022-11-13T19:16:56.097Z,101644.41
2022-11-13T19:19:24.967Z,101644.72
2022-11-13T19:21:53.161Z,101630.09
2022-11-13T19:24:23.724Z,101622.44
2022-11-13T19:26:51.587Z,101606.81
2022-11-13T19:29:20.184Z,101612.31
2022-11-13T19:31:50.129Z,101614.06
2022-11-13T19:34:18.338Z,101606.25
2022-11-13T19:36:47.789Z,101609.72
2022-11-13T19:39:16.195Z,101608.25
2022-11-13T19:41:44.047Z,101612.06
2022-11-13T19:44:13.424Z,101600.66
2022-11-13T19:46:41.199Z,101612.06
2022-11-13T19:49:10.376Z,101600.97
2022-11-13T19:51:38.030Z,101594.41
2022-11-13T19:54:05.796Z,101597.63
2022-11-13T19:56:33.658Z,101592.56
2022-11-13T19:59:01.634Z,101589.66
2022-11-13T20:01:31.861Z,101588.88
2022-11-13T20:04:01.732Z,101583.47
2022-11-13T20:06:33.413Z,101582.16
2022-11-13T20:09:02.131Z,101594.66
2022-11-13T20:11:30.115Z,101580.13
2022-11-13T20:13:58.448Z,101569.44
2022-11-13T20:16:26.557Z,101571.88
2022-11-13T20:18:57.908Z,101577.22
2022-11-13T20:21:26.174Z,101568.19
2022-11-13T20:23:56.981Z,101568.69
2022-11-13T20:26:25.339Z,101566.00
2022-11-13T20:28:53.567Z,101567.06
2022-11-13T20:31:23.524Z,101570.16
2022-11-13T20:33:56.475Z,101566.63
2022-11-13T20:36:25.118Z,101564.34
2022-11-13T20:38:55.667Z,101563.88
2022-11-13T20:41:25.047Z,101563.53
2022-11-13T20:43:55.655Z,101557.81
2022-11-13T20:46:23.699Z,101554.66
2022-11-13T20:48:51.483Z,101552.31
2022-11-13T20:51:20.864Z,101548.53
2022-11-13T20:53:49.228Z,101548.06
2022-11-13T20:56:19.718Z,101544.94
2022-11-13T20:58:47.874Z,101543.34
2022-11-13T21:01:17.214Z,101549.22
2022-11-13T21:03:46.078Z,101537.06
2022-11-13T21:06:16.110Z,101533.44
2022-11-13T21:08:44.526Z,101542.19
2022-11-13T21:11:18.428Z,101532.88
2022-11-13T21:13:48.961Z,101531.03
2022-11-13T21:16:18.105Z,101530.16
2022-11-13T21:18:46.806Z,101524.06
2022-11-13T21:21:18.713Z,101519.19
2022-11-13T21:23:47.558Z,101520.69
2022-11-13T21:26:16.501Z,101513.94
2022-11-13T21:28:44.841Z,101509.06
2022-11-13T21:31:17.706Z,101504.25
2022-11-13T21:33:47.422Z,101504.63
2022-11-13T21:36:16.896Z,101497.28
2022-11-13T21:38:44.951Z,101511.84
2022-11-13T21:41:25.100Z,101504.56
2022-11-13T21:43:56.916Z,101501.19
2022-11-13T21:46:27.842Z,101503.50
2022-11-13T21:48:57.311Z,101489.78
2022-11-13T21:51:25.343Z,101496.94
2022-11-13T21:53:53.457Z,101498.09
2022-11-13T21:56:21.495Z,101490.75
2022-11-13T21:58:49.448Z,101496.53
2022-11-13T22:01:18.401Z,101498.56
2022-11-13T22:03:47.449Z,101486.53
2022-11-13T22:06:18.089Z,101485.34
2022-11-13T22:08:47.141Z,101482.88
2022-11-13T22:11:15.124Z,101476.19
2022-11-13T22:13:44.014Z,101471.59
2022-11-13T22:16:13.386Z,101469.56
2022-11-13T22:18:41.232Z,101467.88
2022-11-13T22:21:13.861Z,101462.19
2022-11-13T22:23:42.921Z,101472.50
2022-11-13T22:26:12.579Z,101468.19
2022-11-13T22:28:41.867Z,101467.97
2022-11-13T22:31:14.738Z,101472.19
2022-11-13T22:33:47.496Z,101459.22
2022-11-13T22:36:19.738Z,101458.56
2022-11-13T22:38:51.321Z,101463.50
2022-11-13T22:41:23.282Z,101454.44
2022-11-13T22:43:53.248Z,101457.97
2022-11-13T22:46:22.796Z,101450.81
2022-11-13T22:48:52.094Z,101454.59
2022-11-13T22:51:22.876Z,101457.69
2022-11-13T22:53:53.083Z,101454.13
2022-11-13T22:56:22.094Z,101451.34
2022-11-13T22:58:50.160Z,101441.81
2022-11-13T23:01:19.998Z,101433.72
2022-11-13T23:03:49.574Z,101428.72
2022-11-13T23:06:19.351Z,101417.50
2022-11-13T23:08:49.167Z,101423.28
2022-11-13T23:11:19.222Z,101416.19
2022-11-13T23:13:48.998Z,101425.09
2022-11-13T23:16:17.886Z,101421.69
2022-11-13T23:18:46.475Z,101414.50
2022-11-13T23:21:15.271Z,101416.00
2022-11-13T23:23:43.624Z,101402.09
2022-11-13T23:26:15.058Z,101413.69
2022-11-13T23:28:42.886Z,101404.38
2022-11-13T23:31:10.602Z,101398.06
2022-11-13T23:33:40.464Z,101397.13
2022-11-13T23:36:09.582Z,101395.75
2022-11-13T23:38:37.805Z,101403.00
2022-11-13T23:41:06.504Z,101395.16
2022-11-13T23:46:23.323Z,101382.00
2022-11-13T23:48:51.079Z,101387.25
2022-11-13T23:51:18.750Z,101374.97
2022-11-13T23:53:46.449Z,101379.63
2022-11-13T23:56:14.093Z,101374.94
2022-11-13T23:58:43.100Z,101380.84
